sensor_id;sensor_type;location;lat;lon;timestamp;P1;durP1;ratioP1;P2;durP2;ratioP2
37857;SDS011;23695;55.868;37.472;2022-10-26T00:01:12;32.63;;;19.67;;
37857;SDS011;23695;55.868;37.472;2022-10-26T00:03:42;30.73;;;18.67;;
37857;SDS011;23695;55.868;37.472;2022-10-26T00:06:11;32.97;;;18.42;;
37857;SDS011;23695;55.868;37.472;2022-10-26T00:08:40;35.40;;;19.55;;
37857;SDS011;23695;55.868;37.472;2022-10-26T00:11:08;40.90;;;20.75;;
37857;SDS011;23695;55.868;37.472;2022-10-26T00:13:36;40.40;;;20.83;;
37857;SDS011;23695;55.868;37.472;2022-10-26T00:16:38;38.28;;;21.00;;
37857;SDS011;23695;55.868;37.472;2022-10-26T00:18:58;40.20;;;20.50;;
37857;SDS011;23695;55.868;37.472;2022-10-26T00:21:26;38.90;;;23.73;;
37857;SDS011;23695;55.868;37.472;2022-10-26T00:23:53;36.03;;;21.75;;
37857;SDS011;23695;55.868;37.472;2022-10-26T00:26:20;37.05;;;22.20;;
37857;SDS011;23695;55.868;37.472;2022-10-26T00:28:47;34.00;;;21.80;;
37857;SDS011;23695;55.868;37.472;2022-10-26T00:31:15;39.95;;;21.15;;
37857;SDS011;23695;55.868;37.472;2022-10-26T00:33:42;32.53;;;20.75;;
37857;SDS011;23695;55.868;37.472;2022-10-26T00:36:09;31.33;;;19.13;;
37857;SDS011;23695;55.868;37.472;2022-10-26T00:38:39;33.63;;;19.77;;
37857;SDS011;23695;55.868;37.472;2022-10-26T00:41:14;32.40;;;18.23;;
37857;SDS011;23695;55.868;37.472;2022-10-26T00:43:44;32.72;;;18.70;;
37857;SDS011;23695;55.868;37.472;2022-10-26T00:46:12;25.05;;;15.00;;
37857;SDS011;23695;55.868;37.472;2022-10-26T00:48:45;32.70;;;17.60;;
37857;SDS011;23695;55.868;37.472;2022-10-26T00:51:32;31.38;;;16.33;;
37857;SDS011;23695;55.868;37.472;2022-10-26T00:54:05;32.25;;;14.25;;
37857;SDS011;23695;55.868;37.472;2022-10-26T00:56:37;28.10;;;14.77;;
37857;SDS011;23695;55.868;37.472;2022-10-26T00:59:08;27.77;;;13.63;;
37857;SDS011;23695;55.868;37.472;2022-10-26T01:01:37;25.97;;;14.03;;
37857;SDS011;23695;55.868;37.472;2022-10-26T01:04:06;26.65;;;12.70;;
37857;SDS011;23695;55.868;37.472;2022-10-26T01:06:35;35.00;;;13.75;;
37857;SDS011;23695;55.868;37.472;2022-10-26T01:09:03;31.33;;;14.15;;
37857;SDS011;23695;55.868;37.472;2022-10-26T01:11:31;26.77;;;13.57;;
37857;SDS011;23695;55.868;37.472;2022-10-26T01:13:59;29.88;;;14.27;;
37857;SDS011;23695;55.868;37.472;2022-10-26T01:22:14;28.17;;;13.05;;
37857;SDS011;23695;55.868;37.472;2022-10-26T01:27:31;25.52;;;13.50;;
37857;SDS011;23695;55.868;37.472;2022-10-26T01:30:12;24.92;;;12.13;;
37857;SDS011;23695;55.868;37.472;2022-10-26T01:32:44;23.38;;;12.07;;
37857;SDS011;23695;55.868;37.472;2022-10-26T01:36:01;29.33;;;12.98;;
37857;SDS011;23695;55.868;37.472;2022-10-26T01:38:40;26.83;;;13.32;;
37857;SDS011;23695;55.868;37.472;2022-10-26T01:41:22;30.20;;;11.63;;
37857;SDS011;23695;55.868;37.472;2022-10-26T01:44:17;23.45;;;12.63;;
37857;SDS011;23695;55.868;37.472;2022-10-26T01:46:46;21.00;;;11.50;;
37857;SDS011;23695;55.868;37.472;2022-10-26T01:49:18;27.08;;;11.20;;
37857;SDS011;23695;55.868;37.472;2022-10-26T01:51:48;32.88;;;12.45;;
37857;SDS011;23695;55.868;37.472;2022-10-26T01:54:16;28.73;;;11.82;;
37857;SDS011;23695;55.868;37.472;2022-10-26T01:56:44;23.27;;;10.95;;
37857;SDS011;23695;55.868;37.472;2022-10-26T01:59:18;24.92;;;12.48;;
37857;SDS011;23695;55.868;37.472;2022-10-26T02:07:21;24.58;;;12.75;;
37857;SDS011;23695;55.868;37.472;2022-10-26T02:10:00;34.28;;;12.77;;
37857;SDS011;23695;55.868;37.472;2022-10-26T02:15:58;26.65;;;12.52;;
37857;SDS011;23695;55.868;37.472;2022-10-26T02:18:32;24.35;;;11.45;;
37857;SDS011;23695;55.868;37.472;2022-10-26T02:21:02;28.92;;;13.25;;
37857;SDS011;23695;55.868;37.472;2022-10-26T02:23:34;21.83;;;12.45;;
37857;SDS011;23695;55.868;37.472;2022-10-26T02:26:06;29.75;;;13.80;;
37857;SDS011;23695;55.868;37.472;2022-10-26T02:28:40;24.30;;;12.73;;
37857;SDS011;23695;55.868;37.472;2022-10-26T02:31:12;28.08;;;12.48;;
37857;SDS011;23695;55.868;37.472;2022-10-26T02:33:43;23.40;;;12.27;;
37857;SDS011;23695;55.868;37.472;2022-10-26T02:36:16;23.67;;;13.02;;
37857;SDS011;23695;55.868;37.472;2022-10-26T02:38:47;29.55;;;12.80;;
37857;SDS011;23695;55.868;37.472;2022-10-26T02:41:17;27.15;;;12.45;;
37857;SDS011;23695;55.868;37.472;2022-10-26T02:43:50;26.77;;;12.38;;
37857;SDS011;23695;55.868;37.472;2022-10-26T02:46:25;32.15;;;12.82;;
37857;SDS011;23695;55.868;37.472;2022-10-26T02:48:53;33.00;;;13.65;;
37857;SDS011;23695;55.868;37.472;2022-10-26T02:54:15;24.88;;;12.32;;
37857;SDS011;23695;55.868;37.472;2022-10-26T02:56:52;26.58;;;12.00;;
37857;SDS011;23695;55.868;37.472;2022-10-26T02:59:25;31.15;;;12.68;;
37857;SDS011;23695;55.868;37.472;2022-10-26T03:01:56;24.02;;;11.73;;
37857;SDS011;23695;55.868;37.472;2022-10-26T03:04:28;22.42;;;11.82;;
37857;SDS011;23695;55.868;37.472;2022-10-26T03:06:56;19.55;;;11.30;;
37857;SDS011;23695;55.868;37.472;2022-10-26T03:09:24;34.25;;;13.18;;
37857;SDS011;23695;55.868;37.472;2022-10-26T03:11:51;18.27;;;10.65;;
37857;SDS011;23695;55.868;37.472;2022-10-26T03:14:19;22.20;;;11.93;;
37857;SDS011;23695;55.868;37.472;2022-10-26T03:16:46;20.27;;;11.05;;
37857;SDS011;23695;55.868;37.472;2022-10-26T03:19:14;22.98;;;11.27;;
37857;SDS011;23695;55.868;37.472;2022-10-26T03:21:41;20.65;;;11.20;;
37857;SDS011;23695;55.868;37.472;2022-10-26T03:24:08;23.52;;;11.40;;
37857;SDS011;23695;55.868;37.472;2022-10-26T03:26:36;21.40;;;10.57;;
37857;SDS011;23695;55.868;37.472;2022-10-26T03:29:03;22.38;;;11.55;;
37857;SDS011;23695;55.868;37.472;2022-10-26T03:31:30;19.35;;;10.63;;
37857;SDS011;23695;55.868;37.472;2022-10-26T03:33:57;20.67;;;10.95;;
37857;SDS011;23695;55.868;37.472;2022-10-26T03:36:24;26.35;;;11.68;;
37857;SDS011;23695;55.868;37.472;2022-10-26T03:38:52;25.88;;;10.60;;
37857;SDS011;23695;55.868;37.472;2022-10-26T03:41:19;17.75;;;11.05;;
37857;SDS011;23695;55.868;37.472;2022-10-26T03:43:46;18.42;;;11.13;;
37857;SDS011;23695;55.868;37.472;2022-10-26T03:46:14;28.83;;;11.45;;
37857;SDS011;23695;55.868;37.472;2022-10-26T03:48:41;19.20;;;11.18;;
37857;SDS011;23695;55.868;37.472;2022-10-26T03:51:08;23.33;;;11.93;;
37857;SDS011;23695;55.868;37.472;2022-10-26T03:53:35;18.33;;;11.10;;
37857;SDS011;23695;55.868;37.472;2022-10-26T03:56:03;20.20;;;11.15;;
37857;SDS011;23695;55.868;37.472;2022-10-26T03:58:30;29.48;;;11.00;;
37857;SDS011;23695;55.868;37.472;2022-10-26T04:00:57;20.02;;;10.85;;
37857;SDS011;23695;55.868;37.472;2022-10-26T04:03:26;25.50;;;10.80;;
37857;SDS011;23695;55.868;37.472;2022-10-26T04:05:53;24.10;;;11.30;;
37857;SDS011;23695;55.868;37.472;2022-10-26T04:08:21;31.88;;;13.57;;
37857;SDS011;23695;55.868;37.472;2022-10-26T04:10:48;20.98;;;11.40;;
37857;SDS011;23695;55.868;37.472;2022-10-26T04:13:15;29.77;;;11.52;;
37857;SDS011;23695;55.868;37.472;2022-10-26T04:15:42;24.15;;;11.68;;
37857;SDS011;23695;55.868;37.472;2022-10-26T04:18:09;30.38;;;10.98;;
37857;SDS011;23695;55.868;37.472;2022-10-26T04:20:40;24.40;;;11.20;;
37857;SDS011;23695;55.868;37.472;2022-10-26T04:23:14;27.88;;;10.68;;
37857;SDS011;23695;55.868;37.472;2022-10-26T04:25:47;27.40;;;12.23;;
37857;SDS011;23695;55.868;37.472;2022-10-26T04:28:14;19.73;;;10.55;;
37857;SDS011;23695;55.868;37.472;2022-10-26T04:30:42;26.85;;;11.07;;
37857;SDS011;23695;55.868;37.472;2022-10-26T04:33:09;22.83;;;13.40;;
37857;SDS011;23695;55.868;37.472;2022-10-26T04:35:37;22.95;;;10.30;;
37857;SDS011;23695;55.868;37.472;2022-10-26T04:38:04;18.73;;;10.23;;
37857;SDS011;23695;55.868;37.472;2022-10-26T04:40:33;28.33;;;10.80;;
37857;SDS011;23695;55.868;37.472;2022-10-26T04:43:01;18.20;;;11.02;;
37857;SDS011;23695;55.868;37.472;2022-10-26T04:45:28;22.02;;;10.80;;
37857;SDS011;23695;55.868;37.472;2022-10-26T04:48:03;20.63;;;10.90;;
37857;SDS011;23695;55.868;37.472;2022-10-26T04:50:35;20.83;;;10.02;;
37857;SDS011;23695;55.868;37.472;2022-10-26T04:53:07;18.25;;;12.07;;
37857;SDS011;23695;55.868;37.472;2022-10-26T04:55:35;29.17;;;10.77;;
37857;SDS011;23695;55.868;37.472;2022-10-26T04:58:02;20.52;;;10.57;;
37857;SDS011;23695;55.868;37.472;2022-10-26T05:00:30;27.85;;;10.60;;
37857;SDS011;23695;55.868;37.472;2022-10-26T05:03:01;23.88;;;11.00;;
37857;SDS011;23695;55.868;37.472;2022-10-26T05:05:33;18.73;;;11.07;;
37857;SDS011;23695;55.868;37.472;2022-10-26T05:10:28;23.42;;;10.75;;
37857;SDS011;23695;55.868;37.472;2022-10-26T05:12:56;28.05;;;11.38;;
37857;SDS011;23695;55.868;37.472;2022-10-26T05:15:25;23.85;;;11.30;;
37857;SDS011;23695;55.868;37.472;2022-10-26T05:17:59;18.33;;;11.50;;
37857;SDS011;23695;55.868;37.472;2022-10-26T05:20:29;21.60;;;11.05;;
37857;SDS011;23695;55.868;37.472;2022-10-26T05:23:01;22.67;;;10.93;;
37857;SDS011;23695;55.868;37.472;2022-10-26T05:25:30;18.13;;;11.00;;
37857;SDS011;23695;55.868;37.472;2022-10-26T05:28:00;17.42;;;11.00;;
37857;SDS011;23695;55.868;37.472;2022-10-26T05:30:30;18.45;;;10.75;;
37857;SDS011;23695;55.868;37.472;2022-10-26T05:32:58;16.88;;;10.50;;
37857;SDS011;23695;55.868;37.472;2022-10-26T05:37:56;20.70;;;10.95;;
37857;SDS011;23695;55.868;37.472;2022-10-26T05:40:23;19.13;;;11.05;;
37857;SDS011;23695;55.868;37.472;2022-10-26T05:42:51;21.83;;;10.95;;
37857;SDS011;23695;55.868;37.472;2022-10-26T05:45:18;21.27;;;11.15;;
37857;SDS011;23695;55.868;37.472;2022-10-26T05:47:45;23.42;;;11.38;;
37857;SDS011;23695;55.868;37.472;2022-10-26T05:50:13;23.25;;;10.63;;
37857;SDS011;23695;55.868;37.472;2022-10-26T05:52:41;20.27;;;11.52;;
37857;SDS011;23695;55.868;37.472;2022-10-26T05:55:09;26.85;;;11.15;;
37857;SDS011;23695;55.868;37.472;2022-10-26T05:57:39;20.67;;;11.67;;
37857;SDS011;23695;55.868;37.472;2022-10-26T06:00:07;25.23;;;10.98;;
37857;SDS011;23695;55.868;37.472;2022-10-26T06:05:15;21.42;;;11.75;;
37857;SDS011;23695;55.868;37.472;2022-10-26T06:07:47;22.38;;;10.65;;
37857;SDS011;23695;55.868;37.472;2022-10-26T06:10:16;20.30;;;11.18;;
37857;SDS011;23695;55.868;37.472;2022-10-26T06:12:44;24.10;;;11.45;;
37857;SDS011;23695;55.868;37.472;2022-10-26T06:15:17;26.73;;;11.88;;
37857;SDS011;23695;55.868;37.472;2022-10-26T06:18:00;23.92;;;12.23;;
37857;SDS011;23695;55.868;37.472;2022-10-26T06:20:38;19.10;;;10.75;;
37857;SDS011;23695;55.868;37.472;2022-10-26T06:23:17;26.48;;;11.77;;
37857;SDS011;23695;55.868;37.472;2022-10-26T06:31:16;20.90;;;11.07;;
37857;SDS011;23695;55.868;37.472;2022-10-26T06:33:43;21.65;;;10.75;;
37857;SDS011;23695;55.868;37.472;2022-10-26T06:38:49;17.63;;;10.25;;
37857;SDS011;23695;55.868;37.472;2022-10-26T06:41:24;19.90;;;10.52;;
37857;SDS011;23695;55.868;37.472;2022-10-26T06:43:52;24.45;;;10.43;;
37857;SDS011;23695;55.868;37.472;2022-10-26T06:48:57;20.23;;;9.32;;
37857;SDS011;23695;55.868;37.472;2022-10-26T06:51:32;19.73;;;9.43;;
37857;SDS011;23695;55.868;37.472;2022-10-26T06:54:17;19.20;;;10.00;;
37857;SDS011;23695;55.868;37.472;2022-10-26T06:57:09;24.25;;;11.25;;
37857;SDS011;23695;55.868;37.472;2022-10-26T06:59:57;18.75;;;9.15;;
37857;SDS011;23695;55.868;37.472;2022-10-26T07:04:56;23.73;;;8.82;;
37857;SDS011;23695;55.868;37.472;2022-10-26T07:07:24;14.13;;;8.52;;
37857;SDS011;23695;55.868;37.472;2022-10-26T07:09:54;20.45;;;9.55;;
37857;SDS011;23695;55.868;37.472;2022-10-26T07:12:21;15.50;;;8.75;;
37857;SDS011;23695;55.868;37.472;2022-10-26T07:14:48;20.35;;;8.52;;
37857;SDS011;23695;55.868;37.472;2022-10-26T07:17:15;17.35;;;9.40;;
37857;SDS011;23695;55.868;37.472;2022-10-26T07:19:42;17.88;;;8.40;;
37857;SDS011;23695;55.868;37.472;2022-10-26T07:22:10;14.93;;;8.57;;
37857;SDS011;23695;55.868;37.472;2022-10-26T07:24:38;19.30;;;8.93;;
37857;SDS011;23695;55.868;37.472;2022-10-26T07:27:05;20.77;;;8.75;;
37857;SDS011;23695;55.868;37.472;2022-10-26T07:29:32;21.55;;;9.05;;
37857;SDS011;23695;55.868;37.472;2022-10-26T07:32:01;16.77;;;8.07;;
37857;SDS011;23695;55.868;37.472;2022-10-26T07:34:28;14.30;;;7.43;;
37857;SDS011;23695;55.868;37.472;2022-10-26T07:36:55;16.60;;;8.95;;
37857;SDS011;23695;55.868;37.472;2022-10-26T07:39:25;26.33;;;9.82;;
37857;SDS011;23695;55.868;37.472;2022-10-26T07:41:52;23.70;;;7.85;;
37857;SDS011;23695;55.868;37.472;2022-10-26T07:44:19;16.60;;;7.88;;
37857;SDS011;23695;55.868;37.472;2022-10-26T07:46:46;22.63;;;9.63;;
37857;SDS011;23695;55.868;37.472;2022-10-26T07:49:13;18.30;;;9.65;;
37857;SDS011;23695;55.868;37.472;2022-10-26T07:51:44;22.08;;;8.63;;
37857;SDS011;23695;55.868;37.472;2022-10-26T07:54:11;15.18;;;9.02;;
37857;SDS011;23695;55.868;37.472;2022-10-26T07:56:38;16.30;;;9.00;;
37857;SDS011;23695;55.868;37.472;2022-10-26T07:59:05;13.63;;;8.63;;
37857;SDS011;23695;55.868;37.472;2022-10-26T08:01:32;21.00;;;9.52;;
37857;SDS011;23695;55.868;37.472;2022-10-26T08:04:00;16.20;;;8.57;;
37857;SDS011;23695;55.868;37.472;2022-10-26T08:06:27;21.98;;;9.32;;
37857;SDS011;23695;55.868;37.472;2022-10-26T08:08:54;16.05;;;9.02;;
37857;SDS011;23695;55.868;37.472;2022-10-26T08:11:21;24.50;;;9.10;;
37857;SDS011;23695;55.868;37.472;2022-10-26T08:13:50;21.92;;;8.52;;
37857;SDS011;23695;55.868;37.472;2022-10-26T08:16:21;15.88;;;8.30;;
37857;SDS011;23695;55.868;37.472;2022-10-26T08:18:49;20.23;;;9.50;;
37857;SDS011;23695;55.868;37.472;2022-10-26T08:21:17;16.08;;;7.95;;
37857;SDS011;23695;55.868;37.472;2022-10-26T08:24:01;16.05;;;8.55;;
37857;SDS011;23695;55.868;37.472;2022-10-26T08:26:28;19.50;;;8.95;;
37857;SDS011;23695;55.868;37.472;2022-10-26T08:28:56;18.33;;;9.30;;
37857;SDS011;23695;55.868;37.472;2022-10-26T08:31:23;13.43;;;8.65;;
37857;SDS011;23695;55.868;37.472;2022-10-26T08:33:50;18.70;;;8.38;;
37857;SDS011;23695;55.868;37.472;2022-10-26T08:36:19;26.15;;;8.60;;
37857;SDS011;23695;55.868;37.472;2022-10-26T08:38:51;20.30;;;9.27;;
37857;SDS011;23695;55.868;37.472;2022-10-26T08:41:23;18.65;;;8.82;;
37857;SDS011;23695;55.868;37.472;2022-10-26T08:44:48;19.02;;;9.00;;
37857;SDS011;23695;55.868;37.472;2022-10-26T08:49:45;20.27;;;9.43;;
37857;SDS011;23695;55.868;37.472;2022-10-26T08:52:21;20.15;;;8.73;;
37857;SDS011;23695;55.868;37.472;2022-10-26T08:54:55;21.35;;;8.57;;
37857;SDS011;23695;55.868;37.472;2022-10-26T08:57:25;24.93;;;9.27;;
37857;SDS011;23695;55.868;37.472;2022-10-26T09:00:20;22.25;;;8.77;;
37857;SDS011;23695;55.868;37.472;2022-10-26T09:02:50;17.35;;;8.95;;
37857;SDS011;23695;55.868;37.472;2022-10-26T09:05:22;19.00;;;9.27;;
37857;SDS011;23695;55.868;37.472;2022-10-26T09:16:37;16.92;;;9.38;;
37857;SDS011;23695;55.868;37.472;2022-10-26T09:22:07;21.83;;;9.60;;
37857;SDS011;23695;55.868;37.472;2022-10-26T09:24:50;17.92;;;9.75;;
37857;SDS011;23695;55.868;37.472;2022-10-26T09:29:56;19.65;;;10.18;;
37857;SDS011;23695;55.868;37.472;2022-10-26T09:35:03;21.35;;;9.95;;
37857;SDS011;23695;55.868;37.472;2022-10-26T09:37:39;18.55;;;9.32;;
37857;SDS011;23695;55.868;37.472;2022-10-26T09:43:06;23.45;;;8.98;;
37857;SDS011;23695;55.868;37.472;2022-10-26T09:45:47;15.20;;;9.15;;
37857;SDS011;23695;55.868;37.472;2022-10-26T09:48:21;15.10;;;9.32;;
37857;SDS011;23695;55.868;37.472;2022-10-26T09:51:09;19.77;;;9.95;;
37857;SDS011;23695;55.868;37.472;2022-10-26T09:53:37;19.15;;;10.25;;
37857;SDS011;23695;55.868;37.472;2022-10-26T09:56:07;20.20;;;9.88;;
37857;SDS011;23695;55.868;37.472;2022-10-26T09:58:39;18.55;;;8.55;;
37857;SDS011;23695;55.868;37.472;2022-10-26T10:01:43;21.48;;;10.05;;
37857;SDS011;23695;55.868;37.472;2022-10-26T10:04:17;21.17;;;9.32;;
37857;SDS011;23695;55.868;37.472;2022-10-26T10:06:51;20.90;;;9.93;;
37857;SDS011;23695;55.868;37.472;2022-10-26T10:09:38;15.80;;;9.07;;
37857;SDS011;23695;55.868;37.472;2022-10-26T10:12:16;22.52;;;9.18;;
37857;SDS011;23695;55.868;37.472;2022-10-26T10:14:55;21.27;;;8.85;;
37857;SDS011;23695;55.868;37.472;2022-10-26T10:17:24;17.13;;;9.05;;
37857;SDS011;23695;55.868;37.472;2022-10-26T10:19:51;16.45;;;9.45;;
37857;SDS011;23695;55.868;37.472;2022-10-26T10:22:19;27.10;;;9.00;;
37857;SDS011;23695;55.868;37.472;2022-10-26T10:27:25;18.20;;;9.10;;
37857;SDS011;23695;55.868;37.472;2022-10-26T10:29:53;20.38;;;8.80;;
37857;SDS011;23695;55.868;37.472;2022-10-26T10:32:29;21.35;;;9.63;;
37857;SDS011;23695;55.868;37.472;2022-10-26T10:35:05;21.85;;;9.40;;
37857;SDS011;23695;55.868;37.472;2022-10-26T10:37:49;18.02;;;9.38;;
37857;SDS011;23695;55.868;37.472;2022-10-26T10:40:18;18.55;;;9.10;;
37857;SDS011;23695;55.868;37.472;2022-10-26T10:42:49;19.65;;;10.20;;
37857;SDS011;23695;55.868;37.472;2022-10-26T10:45:25;20.88;;;10.40;;
37857;SDS011;23695;55.868;37.472;2022-10-26T10:47:58;20.25;;;9.27;;
37857;SDS011;23695;55.868;37.472;2022-10-26T10:50:51;13.82;;;8.25;;
37857;SDS011;23695;55.868;37.472;2022-10-26T10:53:24;19.42;;;9.35;;
37857;SDS011;23695;55.868;37.472;2022-10-26T11:07:19;19.80;;;8.43;;
37857;SDS011;23695;55.868;37.472;2022-10-26T11:09:49;14.88;;;8.18;;
37857;SDS011;23695;55.868;37.472;2022-10-26T11:12:22;13.73;;;8.05;;
37857;SDS011;23695;55.868;37.472;2022-10-26T11:14:55;16.17;;;7.65;;
37857;SDS011;23695;55.868;37.472;2022-10-26T11:17:33;22.23;;;9.02;;
37857;SDS011;23695;55.868;37.472;2022-10-26T11:20:10;14.23;;;8.55;;
37857;SDS011;23695;55.868;37.472;2022-10-26T11:22:42;18.55;;;8.27;;
37857;SDS011;23695;55.868;37.472;2022-10-26T11:25:37;13.95;;;8.50;;
37857;SDS011;23695;55.868;37.472;2022-10-26T11:28:19;17.73;;;9.18;;
37857;SDS011;23695;55.868;37.472;2022-10-26T11:30:59;18.40;;;8.18;;
37857;SDS011;23695;55.868;37.472;2022-10-26T11:33:33;23.15;;;8.27;;
37857;SDS011;23695;55.868;37.472;2022-10-26T11:36:07;19.10;;;8.13;;
37857;SDS011;23695;55.868;37.472;2022-10-26T11:38:48;15.82;;;8.73;;
37857;SDS011;23695;55.868;37.472;2022-10-26T11:41:31;12.52;;;7.72;;
37857;SDS011;23695;55.868;37.472;2022-10-26T11:46:40;17.17;;;9.93;;
37857;SDS011;23695;55.868;37.472;2022-10-26T11:49:20;17.98;;;7.82;;
37857;SDS011;23695;55.868;37.472;2022-10-26T11:52:05;13.15;;;7.68;;
37857;SDS011;23695;55.868;37.472;2022-10-26T11:54:52;18.65;;;7.43;;
37857;SDS011;23695;55.868;37.472;2022-10-26T11:57:22;18.10;;;8.68;;
37857;SDS011;23695;55.868;37.472;2022-10-26T11:59:51;16.15;;;8.38;;
37857;SDS011;23695;55.868;37.472;2022-10-26T12:02:26;13.75;;;8.80;;
37857;SDS011;23695;55.868;37.472;2022-10-26T12:04:54;26.05;;;8.40;;
37857;SDS011;23695;55.868;37.472;2022-10-26T12:07:27;13.52;;;8.35;;
37857;SDS011;23695;55.868;37.472;2022-10-26T12:09:56;17.25;;;9.48;;
37857;SDS011;23695;55.868;37.472;2022-10-26T12:12:37;15.40;;;7.78;;
37857;SDS011;23695;55.868;37.472;2022-10-26T12:18:12;20.13;;;8.80;;
37857;SDS011;23695;55.868;37.472;2022-10-26T12:21:07;15.82;;;8.52;;
37857;SDS011;23695;55.868;37.472;2022-10-26T12:23:36;19.42;;;8.57;;
37857;SDS011;23695;55.868;37.472;2022-10-26T12:34:04;22.17;;;10.65;;
37857;SDS011;23695;55.868;37.472;2022-10-26T12:47:03;19.20;;;9.75;;
37857;SDS011;23695;55.868;37.472;2022-10-26T13:00:46;24.48;;;10.35;;
37857;SDS011;23695;55.868;37.472;2022-10-26T13:09:19;22.33;;;10.07;;
37857;SDS011;23695;55.868;37.472;2022-10-26T13:11:51;20.63;;;9.93;;
37857;SDS011;23695;55.868;37.472;2022-10-26T13:14:23;21.00;;;9.65;;
37857;SDS011;23695;55.868;37.472;2022-10-26T13:16:57;18.10;;;10.82;;
37857;SDS011;23695;55.868;37.472;2022-10-26T13:19:31;23.65;;;10.30;;
37857;SDS011;23695;55.868;37.472;2022-10-26T13:22:11;25.08;;;10.55;;
37857;SDS011;23695;55.868;37.472;2022-10-26T13:24:50;26.58;;;10.07;;
37857;SDS011;23695;55.868;37.472;2022-10-26T13:27:23;28.08;;;10.48;;
37857;SDS011;23695;55.868;37.472;2022-10-26T13:30:15;21.85;;;10.05;;
37857;SDS011;23695;55.868;37.472;2022-10-26T13:33:06;23.95;;;10.63;;
37857;SDS011;23695;55.868;37.472;2022-10-26T13:35:41;18.52;;;11.00;;
37857;SDS011;23695;55.868;37.472;2022-10-26T13:38:10;23.15;;;9.68;;
37857;SDS011;23695;55.868;37.472;2022-10-26T13:40:38;21.20;;;9.38;;
37857;SDS011;23695;55.868;37.472;2022-10-26T13:43:10;19.33;;;9.13;;
37857;SDS011;23695;55.868;37.472;2022-10-26T13:51:09;22.55;;;9.05;;
37857;SDS011;23695;55.868;37.472;2022-10-26T13:56:28;22.80;;;9.43;;
37857;SDS011;23695;55.868;37.472;2022-10-26T13:59:03;19.00;;;8.13;;
37857;SDS011;23695;55.868;37.472;2022-10-26T14:01:36;21.85;;;8.40;;
37857;SDS011;23695;55.868;37.472;2022-10-26T14:06:52;19.20;;;7.82;;
37857;SDS011;23695;55.868;37.472;2022-10-26T14:09:20;25.92;;;7.88;;
37857;SDS011;23695;55.868;37.472;2022-10-26T14:11:52;18.13;;;7.15;;
37857;SDS011;23695;55.868;37.472;2022-10-26T14:14:44;29.50;;;11.85;;
37857;SDS011;23695;55.868;37.472;2022-10-26T14:17:21;23.58;;;8.63;;
37857;SDS011;23695;55.868;37.472;2022-10-26T14:19:51;18.27;;;7.80;;
37857;SDS011;23695;55.868;37.472;2022-10-26T14:22:20;23.35;;;8.38;;
37857;SDS011;23695;55.868;37.472;2022-10-26T14:24:53;18.10;;;7.32;;
37857;SDS011;23695;55.868;37.472;2022-10-26T14:27:32;16.98;;;8.02;;
37857;SDS011;23695;55.868;37.472;2022-10-26T14:30:24;14.38;;;7.68;;
37857;SDS011;23695;55.868;37.472;2022-10-26T14:32:54;15.98;;;7.93;;
37857;SDS011;23695;55.868;37.472;2022-10-26T14:35:27;19.17;;;8.52;;
37857;SDS011;23695;55.868;37.472;2022-10-26T14:37:59;18.45;;;8.02;;
37857;SDS011;23695;55.868;37.472;2022-10-26T14:40:31;21.55;;;8.68;;
37857;SDS011;23695;55.868;37.472;2022-10-26T14:43:03;24.75;;;9.05;;
37857;SDS011;23695;55.868;37.472;2022-10-26T14:45:31;22.90;;;9.02;;
37857;SDS011;23695;55.868;37.472;2022-10-26T14:48:21;20.10;;;8.70;;
37857;SDS011;23695;55.868;37.472;2022-10-26T14:51:01;25.83;;;9.20;;
37857;SDS011;23695;55.868;37.472;2022-10-26T14:53:38;24.00;;;9.00;;
37857;SDS011;23695;55.868;37.472;2022-10-26T14:58:49;21.60;;;9.77;;
37857;SDS011;23695;55.868;37.472;2022-10-26T15:03:52;24.35;;;9.90;;
37857;SDS011;23695;55.868;37.472;2022-10-26T15:06:41;18.48;;;9.07;;
37857;SDS011;23695;55.868;37.472;2022-10-26T15:12:19;20.52;;;10.48;;
37857;SDS011;23695;55.868;37.472;2022-10-26T15:14:54;28.00;;;10.30;;
37857;SDS011;23695;55.868;37.472;2022-10-26T15:17:38;18.98;;;9.63;;
37857;SDS011;23695;55.868;37.472;2022-10-26T15:20:13;23.27;;;10.27;;
37857;SDS011;23695;55.868;37.472;2022-10-26T15:22:50;20.35;;;10.45;;
37857;SDS011;23695;55.868;37.472;2022-10-26T15:25:24;20.85;;;10.48;;
37857;SDS011;23695;55.868;37.472;2022-10-26T15:27:53;18.70;;;9.77;;
37857;SDS011;23695;55.868;37.472;2022-10-26T15:30:33;25.57;;;9.80;;
37857;SDS011;23695;55.868;37.472;2022-10-26T15:33:09;23.42;;;9.85;;
37857;SDS011;23695;55.868;37.472;2022-10-26T15:35:47;23.42;;;9.75;;
37857;SDS011;23695;55.868;37.472;2022-10-26T15:38:14;28.35;;;10.48;;
37857;SDS011;23695;55.868;37.472;2022-10-26T15:40:42;26.42;;;10.23;;
37857;SDS011;23695;55.868;37.472;2022-10-26T15:43:10;17.88;;;10.13;;
37857;SDS011;23695;55.868;37.472;2022-10-26T15:45:45;28.98;;;11.27;;
37857;SDS011;23695;55.868;37.472;2022-10-26T15:48:24;19.75;;;10.43;;
37857;SDS011;23695;55.868;37.472;2022-10-26T15:50:54;21.25;;;11.10;;
37857;SDS011;23695;55.868;37.472;2022-10-26T15:53:25;19.13;;;10.35;;
37857;SDS011;23695;55.868;37.472;2022-10-26T15:55:56;22.70;;;10.43;;
37857;SDS011;23695;55.868;37.472;2022-10-26T15:58:26;22.98;;;10.75;;
37857;SDS011;23695;55.868;37.472;2022-10-26T16:00:56;20.50;;;9.82;;
37857;SDS011;23695;55.868;37.472;2022-10-26T16:03:24;20.52;;;11.70;;
37857;SDS011;23695;55.868;37.472;2022-10-26T16:05:55;23.52;;;10.32;;
37857;SDS011;23695;55.868;37.472;2022-10-26T16:08:25;25.15;;;10.85;;
37857;SDS011;23695;55.868;37.472;2022-10-26T16:10:53;27.33;;;10.98;;
37857;SDS011;23695;55.868;37.472;2022-10-26T16:13:20;20.05;;;10.15;;
37857;SDS011;23695;55.868;37.472;2022-10-26T16:15:48;25.02;;;10.70;;
37857;SDS011;23695;55.868;37.472;2022-10-26T16:18:15;24.55;;;10.57;;
37857;SDS011;23695;55.868;37.472;2022-10-26T16:20:44;19.70;;;10.55;;
37857;SDS011;23695;55.868;37.472;2022-10-26T16:23:11;23.33;;;9.70;;
37857;SDS011;23695;55.868;37.472;2022-10-26T16:25:40;17.02;;;9.88;;
37857;SDS011;23695;55.868;37.472;2022-10-26T16:28:10;25.67;;;11.05;;
37857;SDS011;23695;55.868;37.472;2022-10-26T16:30:38;26.58;;;10.30;;
37857;SDS011;23695;55.868;37.472;2022-10-26T16:33:07;21.98;;;10.05;;
37857;SDS011;23695;55.868;37.472;2022-10-26T16:35:34;23.77;;;10.60;;
37857;SDS011;23695;55.868;37.472;2022-10-26T16:38:01;16.45;;;9.02;;
37857;SDS011;23695;55.868;37.472;2022-10-26T16:40:28;21.35;;;10.20;;
37857;SDS011;23695;55.868;37.472;2022-10-26T16:42:55;19.42;;;10.85;;
37857;SDS011;23695;55.868;37.472;2022-10-26T16:45:22;20.60;;;10.23;;
37857;SDS011;23695;55.868;37.472;2022-10-26T16:47:50;18.17;;;10.13;;
37857;SDS011;23695;55.868;37.472;2022-10-26T16:50:17;16.90;;;10.55;;
37857;SDS011;23695;55.868;37.472;2022-10-26T16:52:47;22.40;;;10.63;;
37857;SDS011;23695;55.868;37.472;2022-10-26T16:55:14;16.70;;;9.55;;
37857;SDS011;23695;55.868;37.472;2022-10-26T16:57:42;19.38;;;10.80;;
37857;SDS011;23695;55.868;37.472;2022-10-26T17:00:09;16.25;;;9.85;;